Time;durP1;ratioP1;P1;durP2;ratioP2;P2;SDS_P1;SDS_P2;PMS_P1;PMS_P2;Temp;Humidity;BMP_temperature;BMP_pressure;BME280_temperature;BME280_humidity;BME280_pressure;Samples;Min_cycle;Max_cycle;Signal;HPM_P1;HPM_P2
2023/06/24 00:00:07;;;;;;;11.07;10.13;;;;;;;;;;5067220;28;20241;-53
2023/06/24 00:02:35;;;;;;;13.32;11.93;;;;;;;;;;5066550;28;20247;-53
2023/06/24 00:05:03;;;;;;;14.88;12.38;;;;;;;;;;5066705;28;20736;-52
2023/06/24 00:07:29;;;;;;;13.75;12.48;;;;;;;;;;5063791;28;20303;-54
2023/06/24 00:09:56;;;;;;;13.57;12.18;;;;;;;;;;5062374;28;20275;-54
2023/06/24 00:12:22;;;;;;;12.00;10.90;;;;;;;;;;5061684;28;20239;-53
2023/06/24 00:14:50;;;;;;;13.63;12.23;;;;;;;;;;5062916;28;20235;-52
2023/06/24 00:17:17;;;;;;;14.70;13.10;;;;;;;;;;5060166;28;20349;-52
2023/06/24 00:19:44;;;;;;;14.20;12.80;;;;;;;;;;5062674;28;20706;-52
2023/06/24 00:22:11;;;;;;;15.15;13.65;;;;;;;;;;5058479;28;20242;-53
2023/06/24 00:24:39;;;;;;;14.40;12.98;;;;;;;;;;5067758;28;20716;-52
2023/06/24 00:27:06;;;;;;;15.00;13.60;;;;;;;;;;5064211;28;20227;-52
2023/06/24 00:29:32;;;;;;;16.13;14.52;;;;;;;;;;5067327;28;20231;-52
2023/06/24 00:32:00;;;;;;;17.48;15.55;;;;;;;;;;5060953;28;20235;-52
2023/06/24 00:34:26;;;;;;;17.67;14.90;;;;;;;;;;5066658;28;20231;-52
2023/06/24 00:36:53;;;;;;;16.25;14.68;;;;;;;;;;5073136;28;20586;-55
2023/06/24 00:39:19;;;;;;;16.85;15.20;;;;;;;;;;5068808;28;20743;-52
2023/06/24 00:41:46;;;;;;;16.73;15.07;;;;;;;;;;5065919;28;20265;-54
2023/06/24 00:44:12;;;;;;;17.80;16.10;;;;;;;;;;5067479;28;20233;-52
2023/06/24 00:46:39;;;;;;;16.83;15.13;;;;;;;;;;5065713;28;20235;-53
2023/06/24 00:49:07;;;;;;;17.60;16.00;;;;;;;;;;5069384;28;20474;-52
2023/06/24 00:51:36;;;;;;;19.00;16.67;;;;;;;;;;5062304;28;20323;-54
2023/06/24 00:54:02;;;;;;;16.92;14.63;;;;;;;;;;5058007;28;20599;-52
2023/06/24 00:56:30;;;;;;;19.02;14.80;;;;;;;;;;5065432;28;20708;-54
2023/06/24 00:58:58;;;;;;;14.88;13.38;;;;;;;;;;5066811;28;20254;-53
2023/06/24 01:01:25;;;;;;;15.45;13.57;;;;;;;;;;5064251;28;20234;-57
2023/06/24 01:03:51;;;;;;;15.60;13.98;;;;;;;;;;5058374;28;20333;-53
2023/06/24 01:06:19;;;;;;;14.07;12.77;;;;;;;;;;5062591;28;20237;-53
2023/06/24 01:08:56;;;;;;;15.50;13.98;;;;;;;;;;5070342;28;20231;-53
2023/06/24 01:11:22;;;;;;;15.77;13.88;;;;;;;;;;5061953;28;20235;-53
2023/06/24 01:13:49;;;;;;;15.98;14.38;;;;;;;;;;5061034;28;20329;-51
2023/06/24 01:16:22;;;;;;;15.80;14.23;;;;;;;;;;5058767;28;20235;-52
2023/06/24 01:18:54;;;;;;;17.45;14.15;;;;;;;;;;5055643;28;20293;-52
2023/06/24 01:21:29;;;;;;;16.77;15.02;;;;;;;;;;5059319;28;20262;-53
2023/06/24 01:24:20;;;;;;;15.20;13.77;;;;;;;;;;5060600;28;20237;-52
2023/06/24 01:27:08;;;;;;;14.25;12.85;;;;;;;;;;5056309;28;20611;-53
2023/06/24 01:29:51;;;;;;;14.45;12.98;;;;;;;;;;5060038;28;20696;-53
2023/06/24 01:32:20;;;;;;;14.00;12.60;;;;;;;;;;5057543;28;20242;-54
2023/06/24 01:34:50;;;;;;;13.95;12.65;;;;;;;;;;5062113;28;20319;-53
2023/06/24 01:37:18;;;;;;;14.63;13.25;;;;;;;;;;5060420;28;20235;-53
2023/06/24 01:39:48;;;;;;;14.98;13.43;;;;;;;;;;5061373;28;20304;-53
2023/06/24 01:42:15;;;;;;;14.38;12.98;;;;;;;;;;5057477;28;20239;-52
2023/06/24 01:44:43;;;;;;;17.27;13.15;;;;;;;;;;5064588;28;20250;-53
2023/06/24 01:47:10;;;;;;;14.50;13.02;;;;;;;;;;5062022;28;20235;-52
2023/06/24 01:49:40;;;;;;;13.52;12.23;;;;;;;;;;5061804;28;20235;-53
2023/06/24 01:52:08;;;;;;;14.45;13.07;;;;;;;;;;5062566;28;20243;-53
2023/06/24 01:54:36;;;;;;;13.32;12.13;;;;;;;;;;5063102;28;20249;-52
2023/06/24 01:57:04;;;;;;;13.52;12.32;;;;;;;;;;5068193;28;20294;-51
2023/06/24 01:59:30;;;;;;;13.57;12.18;;;;;;;;;;5067180;28;20322;-53
2023/06/24 02:01:57;;;;;;;12.43;11.32;;;;;;;;;;5063835;28;20769;-52
2023/06/24 02:04:24;;;;;;;14.57;13.13;;;;;;;;;;5058215;28;20227;-52
2023/06/24 02:06:54;;;;;;;14.38;13.07;;;;;;;;;;5047802;28;20675;-52
2023/06/24 02:09:21;;;;;;;17.92;13.02;;;;;;;;;;5056878;28;20234;-52
2023/06/24 02:11:48;;;;;;;13.90;12.50;;;;;;;;;;5057960;28;20582;-52
2023/06/24 02:14:17;;;;;;;11.82;10.80;;;;;;;;;;5061317;28;20242;-53
2023/06/24 02:16:44;;;;;;;15.57;11.88;;;;;;;;;;5057696;28;20304;-53
2023/06/24 02:19:11;;;;;;;11.90;10.80;;;;;;;;;;5057387;28;20238;-53
2023/06/24 02:21:40;;;;;;;15.23;11.70;;;;;;;;;;5066565;28;20307;-53
2023/06/24 02:24:09;;;;;;;13.15;11.75;;;;;;;;;;5066564;28;20222;-52
2023/06/24 02:26:40;;;;;;;12.07;10.77;;;;;;;;;;5057469;28;20430;-52
2023/06/24 02:29:07;;;;;;;11.02;10.00;;;;;;;;;;5063040;28;20240;-52
2023/06/24 02:31:34;;;;;;;11.10;10.00;;;;;;;;;;5063604;28;20250;-52
2023/06/24 02:34:01;;;;;;;11.90;10.60;;;;;;;;;;5062975;28;20700;-52
2023/06/24 02:36:27;;;;;;;10.23;9.32;;;;;;;;;;5059816;28;20231;-53
2023/06/24 02:38:54;;;;;;;11.50;10.35;;;;;;;;;;5062830;28;20232;-52
2023/06/24 02:41:22;;;;;;;11.00;9.85;;;;;;;;;;5073170;28;20276;-53
2023/06/24 02:43:48;;;;;;;11.82;10.52;;;;;;;;;;5071985;28;20239;-57
2023/06/24 02:46:16;;;;;;;12.00;10.30;;;;;;;;;;5071631;28;20231;-52
2023/06/24 02:48:44;;;;;;;12.77;10.50;;;;;;;;;;5055357;28;20243;-52
2023/06/24 02:51:11;;;;;;;11.30;10.23;;;;;;;;;;5059119;28;20222;-53
2023/06/24 02:53:38;;;;;;;11.13;10.07;;;;;;;;;;5056324;28;20246;-52
2023/06/24 02:56:05;;;;;;;9.88;8.77;;;;;;;;;;5062009;28;20656;-52
2023/06/24 02:58:33;;;;;;;9.63;8.73;;;;;;;;;;5055171;28;20501;-53
2023/06/24 03:01:00;;;;;;;11.73;10.52;;;;;;;;;;5057882;28;20259;-51
2023/06/24 03:03:27;;;;;;;10.40;9.40;;;;;;;;;;5063219;28;20307;-53
2023/06/24 03:05:56;;;;;;;10.50;9.25;;;;;;;;;;5061029;28;20231;-53
2023/06/24 03:08:23;;;;;;;10.13;9.13;;;;;;;;;;5062656;28;20258;-53
2023/06/24 03:10:50;;;;;;;11.00;9.57;;;;;;;;;;5061287;28;20243;-52
2023/06/24 03:13:16;;;;;;;10.32;9.43;;;;;;;;;;5069702;28;20243;-52
2023/06/24 03:15:44;;;;;;;10.90;9.80;;;;;;;;;;5060774;28;20716;-53
2023/06/24 03:18:11;;;;;;;9.82;8.93;;;;;;;;;;5062959;28;20237;-53
2023/06/24 03:20:38;;;;;;;10.95;9.85;;;;;;;;;;5063496;28;20721;-54
2023/06/24 03:23:06;;;;;;;10.88;9.80;;;;;;;;;;5058332;28;20320;-53
2023/06/24 03:25:32;;;;;;;11.18;9.95;;;;;;;;;;5062261;28;20280;-53
2023/06/24 03:28:00;;;;;;;11.73;10.55;;;;;;;;;;5064038;28;20235;-54
2023/06/24 03:30:27;;;;;;;12.10;10.77;;;;;;;;;;5060205;28;20227;-52
2023/06/24 03:32:55;;;;;;;9.88;8.88;;;;;;;;;;5068045;28;20246;-53
2023/06/24 03:35:22;;;;;;;9.70;8.70;;;;;;;;;;5058931;28;20235;-52
2023/06/24 03:37:48;;;;;;;11.43;10.23;;;;;;;;;;5063842;28;20234;-52
2023/06/24 03:40:15;;;;;;;10.55;9.55;;;;;;;;;;5059178;28;20330;-53
2023/06/24 03:42:42;;;;;;;9.60;8.70;;;;;;;;;;5061774;28;20235;-53
2023/06/24 03:45:08;;;;;;;14.02;9.48;;;;;;;;;;5063378;28;20231;-53
2023/06/24 03:47:35;;;;;;;10.70;9.40;;;;;;;;;;5065320;28;20231;-52
2023/06/24 03:50:03;;;;;;;10.02;9.05;;;;;;;;;;5068682;28;20254;-52
2023/06/24 03:52:29;;;;;;;13.40;9.75;;;;;;;;;;5058653;28;20247;-53
2023/06/24 03:54:56;;;;;;;10.07;8.93;;;;;;;;;;5063986;28;20326;-53
2023/06/24 03:57:22;;;;;;;9.02;8.15;;;;;;;;;;5065730;28;20316;-53
2023/06/24 03:59:49;;;;;;;9.52;8.68;;;;;;;;;;5065848;28;20231;-53
2023/06/24 04:02:17;;;;;;;10.13;9.02;;;;;;;;;;5064267;28;20247;-52
2023/06/24 04:04:43;;;;;;;10.85;9.75;;;;;;;;;;5075646;28;20257;-53
2023/06/24 04:07:11;;;;;;;10.93;9.73;;;;;;;;;;5082211;28;20309;-53
2023/06/24 04:09:39;;;;;;;9.70;8.80;;;;;;;;;;5069809;28;20237;-57
2023/06/24 04:12:05;;;;;;;11.07;9.98;;;;;;;;;;5075909;28;20257;-55
2023/06/24 04:14:32;;;;;;;9.35;8.50;;;;;;;;;;5085434;28;20647;-55
2023/06/24 04:16:59;;;;;;;11.77;10.00;;;;;;;;;;5073181;28;20235;-53
2023/06/24 04:19:26;;;;;;;9.75;8.82;;;;;;;;;;5066274;28;20234;-52
2023/06/24 04:21:53;;;;;;;10.13;9.02;;;;;;;;;;5065456;28;20242;-52
2023/06/24 04:24:21;;;;;;;9.93;8.95;;;;;;;;;;5057686;28;20354;-52
2023/06/24 04:26:48;;;;;;;9.85;8.90;;;;;;;;;;5072404;28;20249;-53
2023/06/24 04:29:14;;;;;;;10.55;9.55;;;;;;;;;;5068381;28;20231;-51
2023/06/24 04:31:41;;;;;;;9.43;8.63;;;;;;;;;;5063847;28;20226;-51
2023/06/24 04:34:07;;;;;;;12.05;9.95;;;;;;;;;;5063700;28;20280;-53
2023/06/24 04:36:35;;;;;;;10.20;9.23;;;;;;;;;;5068427;28;20288;-55
2023/06/24 04:39:01;;;;;;;10.27;9.38;;;;;;;;;;5064966;28;20785;-54
2023/06/24 04:41:29;;;;;;;10.85;9.77;;;;;;;;;;5068866;28;20227;-53
2023/06/24 04:43:56;;;;;;;11.05;10.00;;;;;;;;;;5068941;28;20238;-56
2023/06/24 04:46:22;;;;;;;10.38;9.43;;;;;;;;;;5056619;28;20231;-52
2023/06/24 04:48:49;;;;;;;9.73;8.35;;;;;;;;;;5064943;28;20315;-52
2023/06/24 04:51:16;;;;;;;9.90;8.88;;;;;;;;;;5069970;28;20442;-52
2023/06/24 04:53:42;;;;;;;12.25;11.05;;;;;;;;;;5061188;28;20310;-52
2023/06/24 04:56:09;;;;;;;10.95;9.48;;;;;;;;;;5063795;28;20738;-53
2023/06/24 04:58:37;;;;;;;9.50;8.45;;;;;;;;;;5063268;28;20748;-53
2023/06/24 05:01:03;;;;;;;11.20;10.00;;;;;;;;;;5065480;28;20847;-53
2023/06/24 05:03:30;;;;;;;10.80;9.65;;;;;;;;;;5062370;28;20227;-54
2023/06/24 05:05:56;;;;;;;10.30;9.30;;;;;;;;;;5065295;28;20262;-53
2023/06/24 05:08:23;;;;;;;10.10;9.10;;;;;;;;;;5062025;28;20744;-52
2023/06/24 05:10:49;;;;;;;9.95;9.00;;;;;;;;;;5062805;28;20231;-52
2023/06/24 05:13:16;;;;;;;10.07;9.07;;;;;;;;;;5061061;28;20234;-52
2023/06/24 05:15:44;;;;;;;12.48;10.20;;;;;;;;;;5057856;28;20258;-52
2023/06/24 05:18:11;;;;;;;11.52;10.38;;;;;;;;;;5065326;28;20237;-51
2023/06/24 05:20:38;;;;;;;11.82;9.63;;;;;;;;;;5064905;28;20231;-52
2023/06/24 05:23:04;;;;;;;10.75;9.85;;;;;;;;;;5060366;28;20234;-52
2023/06/24 05:25:31;;;;;;;13.27;10.57;;;;;;;;;;5061105;28;20896;-53
2023/06/24 05:27:58;;;;;;;9.80;8.85;;;;;;;;;;5060550;28;20239;-51
2023/06/24 05:30:24;;;;;;;10.05;9.10;;;;;;;;;;5063613;28;20306;-53
2023/06/24 05:32:52;;;;;;;13.68;9.02;;;;;;;;;;5059957;28;20242;-54
2023/06/24 05:35:19;;;;;;;10.40;9.23;;;;;;;;;;5061547;28;20265;-53
2023/06/24 05:37:46;;;;;;;9.50;8.60;;;;;;;;;;5059211;28;20288;-52
2023/06/24 05:40:13;;;;;;;10.98;8.98;;;;;;;;;;5062297;28;20231;-52
2023/06/24 05:42:40;;;;;;;9.52;8.02;;;;;;;;;;5061057;28;20239;-52
2023/06/24 05:45:07;;;;;;;9.20;8.30;;;;;;;;;;5060488;28;20654;-52
2023/06/24 05:47:34;;;;;;;10.98;9.88;;;;;;;;;;5058829;28;20281;-52
2023/06/24 05:50:02;;;;;;;11.63;9.48;;;;;;;;;;5060032;28;20242;-52
2023/06/24 05:52:29;;;;;;;9.50;8.45;;;;;;;;;;5061671;28;20651;-53
2023/06/24 05:54:56;;;;;;;9.73;8.82;;;;;;;;;;5062988;28;20230;-52
2023/06/24 05:57:22;;;;;;;9.63;7.57;;;;;;;;;;5064360;28;20238;-52
2023/06/24 05:59:49;;;;;;;9.07;8.18;;;;;;;;;;5062950;28;20308;-53
2023/06/24 06:02:16;;;;;;;9.05;8.20;;;;;;;;;;5062610;28;20235;-52
2023/06/24 06:04:42;;;;;;;8.43;7.70;;;;;;;;;;5061256;28;20231;-53
2023/06/24 06:07:10;;;;;;;10.75;9.65;;;;;;;;;;5059137;28;20230;-52
2023/06/24 06:09:37;;;;;;;11.35;10.15;;;;;;;;;;5061750;28;20245;-51
2023/06/24 06:12:04;;;;;;;10.63;9.63;;;;;;;;;;5062735;28;20300;-53
2023/06/24 06:14:31;;;;;;;9.80;8.85;;;;;;;;;;5066840;28;20231;-52
2023/06/24 06:16:58;;;;;;;9.45;8.55;;;;;;;;;;5066884;28;20716;-52
2023/06/24 06:19:24;;;;;;;8.63;7.80;;;;;;;;;;5068597;28;20318;-52
2023/06/24 06:21:52;;;;;;;9.25;8.35;;;;;;;;;;5064629;28;20234;-52
2023/06/24 06:24:20;;;;;;;10.23;8.38;;;;;;;;;;5065932;28;20278;-53
2023/06/24 06:26:46;;;;;;;15.25;9.48;;;;;;;;;;5068353;28;20614;-52
2023/06/24 06:29:13;;;;;;;9.63;8.73;;;;;;;;;;5063817;28;20237;-53
2023/06/24 06:31:39;;;;;;;10.48;9.18;;;;;;;;;;5059868;28;20231;-52
2023/06/24 06:34:06;;;;;;;8.48;7.78;;;;;;;;;;5060101;28;20322;-52
2023/06/24 06:36:33;;;;;;;8.90;8.10;;;;;;;;;;5061277;28;20231;-52
2023/06/24 06:38:59;;;;;;;12.48;8.57;;;;;;;;;;5060037;28;20224;-53
2023/06/24 06:41:27;;;;;;;8.65;7.85;;;;;;;;;;5063248;28;20318;-54
2023/06/24 06:43:54;;;;;;;10.48;8.48;;;;;;;;;;5052070;28;20243;-53
2023/06/24 06:46:21;;;;;;;9.18;8.40;;;;;;;;;;5064848;28;20235;-51
2023/06/24 06:48:48;;;;;;;10.65;7.45;;;;;;;;;;5065883;28;20234;-52
2023/06/24 06:51:15;;;;;;;8.15;7.35;;;;;;;;;;5065417;28;20988;-52
2023/06/24 06:53:41;;;;;;;8.10;7.30;;;;;;;;;;5063786;28;20240;-52
2023/06/24 06:56:08;;;;;;;8.98;7.30;;;;;;;;;;5070504;28;20250;-54
2023/06/24 06:58:38;;;;;;;7.93;7.13;;;;;;;;;;5067657;28;20236;-53
2023/06/24 07:01:05;;;;;;;8.45;7.65;;;;;;;;;;5068152;28;20304;-52
2023/06/24 07:03:32;;;;;;;7.22;6.55;;;;;;;;;;5071226;28;20239;-53
2023/06/24 07:05:59;;;;;;;7.78;6.97;;;;;;;;;;5066261;28;20234;-58
2023/06/24 07:08:25;;;;;;;10.02;6.70;;;;;;;;;;5066834;28;20704;-53
2023/06/24 07:10:52;;;;;;;6.80;6.20;;;;;;;;;;5067189;28;20284;-53
2023/06/24 07:13:19;;;;;;;7.03;6.43;;;;;;;;;;5060577;28;21832;-52
2023/06/24 07:15:47;;;;;;;7.80;7.00;;;;;;;;;;5061667;28;20239;-53
2023/06/24 07:18:13;;;;;;;7.80;6.90;;;;;;;;;;5061825;28;20288;-53
2023/06/24 07:20:40;;;;;;;8.90;6.50;;;;;;;;;;5066025;28;20325;-53
2023/06/24 07:23:06;;;;;;;7.53;6.88;;;;;;;;;;5069025;28;20292;-53
2023/06/24 07:25:34;;;;;;;8.13;6.60;;;;;;;;;;5065445;28;20239;-52
2023/06/24 07:28:01;;;;;;;9.10;7.10;;;;;;;;;;5065621;28;20292;-53
2023/06/24 07:30:27;;;;;;;8.90;6.50;;;;;;;;;;5065293;28;20281;-52
2023/06/24 07:32:55;;;;;;;6.65;6.05;;;;;;;;;;5061084;28;20666;-52
2023/06/24 07:35:22;;;;;;;7.60;6.78;;;;;;;;;;5064969;28;20242;-52
2023/06/24 07:37:49;;;;;;;6.25;5.75;;;;;;;;;;5062413;28;20273;-52
2023/06/24 07:40:17;;;;;;;6.53;5.80;;;;;;;;;;5063261;28;20241;-52
2023/06/24 07:42:44;;;;;;;6.22;5.72;;;;;;;;;;5063218;28;20242;-52
2023/06/24 07:45:11;;;;;;;6.88;5.32;;;;;;;;;;5064446;28;20227;-52
2023/06/24 07:47:38;;;;;;;7.82;5.90;;;;;;;;;;5061009;28;20231;-51
2023/06/24 07:50:08;;;;;;;7.95;5.63;;;;;;;;;;5065733;28;20261;-53
2023/06/24 07:52:35;;;;;;;6.43;5.82;;;;;;;;;;5063073;28;20227;-53
2023/06/24 07:55:03;;;;;;;7.03;5.63;;;;;;;;;;5064817;28;20756;-53
2023/06/24 07:57:30;;;;;;;5.93;5.32;;;;;;;;;;5063127;28;20244;-53
2023/06/24 07:59:56;;;;;;;6.47;5.88;;;;;;;;;;5062905;27;20749;-52
2023/06/24 08:02:23;;;;;;;6.15;5.53;;;;;;;;;;5067676;28;20296;-53
2023/06/24 08:04:50;;;;;;;6.60;5.93;;;;;;;;;;5065486;28;20254;-54
2023/06/24 08:07:18;;;;;;;5.65;5.15;;;;;;;;;;5062454;28;20258;-52
2023/06/24 08:09:45;;;;;;;5.70;5.05;;;;;;;;;;5060746;28;20860;-52
2023/06/24 08:12:12;;;;;;;6.03;5.32;;;;;;;;;;5067835;28;20305;-52
2023/06/24 08:14:38;;;;;;;6.47;4.63;;;;;;;;;;5061823;28;20235;-53
2023/06/24 08:17:05;;;;;;;5.28;4.78;;;;;;;;;;5061083;28;20239;-52
2023/06/24 08:19:32;;;;;;;6.25;5.00;;;;;;;;;;5064035;28;20227;-54
2023/06/24 08:21:58;;;;;;;6.00;5.40;;;;;;;;;;5062660;28;20234;-53
2023/06/24 08:24:26;;;;;;;6.05;5.45;;;;;;;;;;5064424;28;20287;-53
2023/06/24 08:26:54;;;;;;;7.43;5.00;;;;;;;;;;5061409;28;20231;-53
2023/06/24 08:29:20;;;;;;;6.10;5.60;;;;;;;;;;5060723;28;20366;-53
2023/06/24 08:31:47;;;;;;;5.75;5.07;;;;;;;;;;5067385;28;20303;-53
2023/06/24 08:34:14;;;;;;;5.05;4.60;;;;;;;;;;5068019;28;20255;-53
2023/06/24 08:36:40;;;;;;;5.68;5.05;;;;;;;;;;5065384;28;20329;-53
2023/06/24 08:39:07;;;;;;;4.60;4.20;;;;;;;;;;5066797;28;20344;-53
2023/06/24 08:41:35;;;;;;;7.30;5.13;;;;;;;;;;5071761;28;20231;-53
2023/06/24 08:44:02;;;;;;;6.32;5.47;;;;;;;;;;5068115;28;20281;-53
2023/06/24 08:46:29;;;;;;;6.63;4.82;;;;;;;;;;5069912;27;20325;-56
2023/06/24 08:49:02;;;;;;;5.47;4.95;;;;;;;;;;5067085;28;20734;-55
2023/06/24 08:51:30;;;;;;;5.75;5.05;;;;;;;;;;5058198;28;20239;-52
2023/06/24 08:53:58;;;;;;;6.78;5.18;;;;;;;;;;5059827;28;20241;-53
2023/06/24 08:56:25;;;;;;;5.13;4.63;;;;;;;;;;5070067;28;20326;-53
2023/06/24 08:58:53;;;;;;;6.55;4.50;;;;;;;;;;5067245;28;20235;-52
2023/06/24 09:01:20;;;;;;;5.22;4.72;;;;;;;;;;5059086;28;20300;-52
2023/06/24 09:03:47;;;;;;;5.50;5.00;;;;;;;;;;5067910;28;20239;-53
2023/06/24 09:06:14;;;;;;;5.70;5.05;;;;;;;;;;5065211;28;20234;-54
2023/06/24 09:08:41;;;;;;;5.78;5.28;;;;;;;;;;5065675;28;20231;-53
2023/06/24 09:11:09;;;;;;;5.03;4.53;;;;;;;;;;5067083;28;20605;-53
2023/06/24 09:13:36;;;;;;;7.03;4.65;;;;;;;;;;5069759;28;20308;-53
2023/06/24 09:16:12;;;;;;;7.80;5.30;;;;;;;;;;5067919;28;20284;-54
2023/06/24 09:18:38;;;;;;;5.85;5.32;;;;;;;;;;5069433;28;20318;-52
2023/06/24 09:21:05;;;;;;;4.30;3.90;;;;;;;;;;5065106;28;21094;-53
2023/06/24 09:23:36;;;;;;;4.45;4.15;;;;;;;;;;5057743;28;20231;-54
2023/06/24 09:26:02;;;;;;;5.15;4.65;;;;;;;;;;5061009;28;20320;-53
2023/06/24 09:28:29;;;;;;;4.95;4.13;;;;;;;;;;5063816;28;20277;-52
2023/06/24 09:31:07;;;;;;;5.13;4.03;;;;;;;;;;5064321;28;20230;-52
2023/06/24 09:33:35;;;;;;;4.35;3.85;;;;;;;;;;5060418;28;20227;-53
2023/06/24 09:36:02;;;;;;;4.13;3.83;;;;;;;;;;5064827;28;20230;-52
2023/06/24 09:38:36;;;;;;;3.90;3.53;;;;;;;;;;5065226;28;20227;-53
2023/06/24 09:41:05;;;;;;;3.45;3.15;;;;;;;;;;5062718;28;20237;-53
2023/06/24 09:43:34;;;;;;;4.28;3.97;;;;;;;;;;5064266;28;20235;-53
2023/06/24 09:46:02;;;;;;;4.82;4.38;;;;;;;;;;5064522;28;20263;-54
2023/06/24 09:48:28;;;;;;;4.47;3.90;;;;;;;;;;5064489;28;20227;-53
2023/06/24 09:50:56;;;;;;;6.25;3.35;;;;;;;;;;5062288;28;20393;-53
2023/06/24 09:53:23;;;;;;;5.63;3.22;;;;;;;;;;5061764;28;20237;-53
2023/06/24 09:55:50;;;;;;;4.07;3.53;;;;;;;;;;5063748;28;20310;-55
2023/06/24 09:58:17;;;;;;;4.45;3.30;;;;;;;;;;5064135;28;20597;-52
2023/06/24 10:00:44;;;;;;;4.47;3.60;;;;;;;;;;5064011;28;20262;-53
2023/06/24 10:03:10;;;;;;;4.93;3.35;;;;;;;;;;5065294;28;20251;-52
2023/06/24 10:05:37;;;;;;;3.78;3.30;;;;;;;;;;5064928;28;20255;-52
2023/06/24 10:08:05;;;;;;;7.00;4.03;;;;;;;;;;5065159;28;20703;-53
2023/06/24 10:10:32;;;;;;;3.75;3.40;;;;;;;;;;5060049;28;20292;-53
2023/06/24 10:12:58;;;;;;;3.78;3.47;;;;;;;;;;5063974;28;20605;-52
2023/06/24 10:15:25;;;;;;;3.72;3.42;;;;;;;;;;5064458;28;20231;-51
2023/06/24 10:17:51;;;;;;;4.10;3.72;;;;;;;;;;5065690;28;20255;-53
2023/06/24 10:20:25;;;;;;;3.10;2.90;;;;;;;;;;5068080;28;20334;-53
2023/06/24 10:22:52;;;;;;;4.38;3.97;;;;;;;;;;5057447;28;20833;-52
2023/06/24 10:25:20;;;;;;;3.70;3.28;;;;;;;;;;5061962;28;20320;-53
2023/06/24 10:27:54;;;;;;;7.70;3.42;;;;;;;;;;5066306;28;20227;-53
2023/06/24 10:30:23;;;;;;;5.65;4.30;;;;;;;;;;5062026;28;20307;-52
2023/06/24 10:32:52;;;;;;;3.38;2.92;;;;;;;;;;5066579;28;20242;-52
2023/06/24 10:35:29;;;;;;;3.80;3.50;;;;;;;;;;5067397;28;20289;-53
2023/06/24 10:37:56;;;;;;;3.97;3.53;;;;;;;;;;5069740;28;20250;-53
2023/06/24 10:40:37;;;;;;;3.55;3.25;;;;;;;;;;5066242;28;20231;-52
2023/06/24 10:43:23;;;;;;;4.22;3.28;;;;;;;;;;5061420;28;20876;-52
2023/06/24 10:45:50;;;;;;;4.55;4.07;;;;;;;;;;5067103;28;20233;-53
2023/06/24 10:48:19;;;;;;;4.55;4.13;;;;;;;;;;5070965;28;20239;-59
2023/06/24 10:50:46;;;;;;;4.25;3.33;;;;;;;;;;5069186;28;20235;-53
2023/06/24 10:53:13;;;;;;;3.55;3.25;;;;;;;;;;5070187;28;20326;-59
2023/06/24 10:55:41;;;;;;;4.55;4.00;;;;;;;;;;5072807;28;20238;-53
2023/06/24 10:58:08;;;;;;;4.28;3.90;;;;;;;;;;5075309;28;20234;-53
2023/06/24 11:00:34;;;;;;;4.05;3.65;;;;;;;;;;5074569;28;20231;-54
2023/06/24 11:03:08;;;;;;;4.65;3.83;;;;;;;;;;5073989;28;20322;-55
2023/06/24 11:05:34;;;;;;;3.67;3.38;;;;;;;;;;5075044;28;20241;-61
2023/06/24 11:08:01;;;;;;;3.25;2.95;;;;;;;;;;5077531;28;20310;-56
2023/06/24 11:10:27;;;;;;;4.03;3.72;;;;;;;;;;5077940;28;20235;-54
2023/06/24 11:12:57;;;;;;;4.70;3.50;;;;;;;;;;5074413;28;20318;-54
2023/06/24 11:15:23;;;;;;;3.53;3.22;;;;;;;;;;5076756;28;20235;-54
2023/06/24 11:17:51;;;;;;;4.25;3.53;;;;;;;;;;5073488;28;20306;-54
2023/06/24 11:20:17;;;;;;;4.03;3.55;;;;;;;;;;5078685;28;20511;-55
2023/06/24 11:22:44;;;;;;;4.28;3.97;;;;;;;;;;5076828;28;20322;-54
2023/06/24 11:25:18;;;;;;;5.75;3.80;;;;;;;;;;5073404;28;20313;-53
2023/06/24 11:27:45;;;;;;;6.63;3.78;;;;;;;;;;5070586;28;20235;-53
2023/06/24 11:30:14;;;;;;;9.23;3.38;;;;;;;;;;5072587;28;20223;-52
2023/06/24 11:32:41;;;;;;;3.30;3.00;;;;;;;;;;5068110;28;20270;-53
2023/06/24 11:35:08;;;;;;;3.50;3.20;;;;;;;;;;5067688;28;20292;-53
2023/06/24 11:37:35;;;;;;;4.07;3.67;;;;;;;;;;5068473;28;20242;-55
2023/06/24 11:40:04;;;;;;;4.00;3.45;;;;;;;;;;5065890;28;20227;-53
2023/06/24 11:42:31;;;;;;;4.47;4.05;;;;;;;;;;5063537;28;20911;-57
2023/06/24 11:45:00;;;;;;;3.70;3.38;;;;;;;;;;5066991;28;20285;-53
2023/06/24 11:47:31;;;;;;;3.85;3.50;;;;;;;;;;5069699;28;20223;-53
2023/06/24 11:50:00;;;;;;;4.07;3.03;;;;;;;;;;5065905;28;20242;-54
2023/06/24 11:52:32;;;;;;;3.67;3.40;;;;;;;;;;5064754;28;20322;-53
2023/06/24 11:54:59;;;;;;;3.55;3.25;;;;;;;;;;5064647;28;20642;-53
2023/06/24 11:57:41;;;;;;;3.17;2.70;;;;;;;;;;5069797;28;20237;-52
2023/06/24 12:00:13;;;;;;;4.18;3.15;;;;;;;;;;5066123;28;20223;-52
2023/06/24 12:02:41;;;;;;;4.32;3.35;;;;;;;;;;5066538;28;20230;-53
2023/06/24 12:05:08;;;;;;;3.67;3.30;;;;;;;;;;5065948;28;21013;-53
2023/06/24 12:07:34;;;;;;;5.85;3.15;;;;;;;;;;5064606;28;20227;-53
2023/06/24 12:10:01;;;;;;;3.50;2.95;;;;;;;;;;5066737;28;20258;-54
2023/06/24 12:12:28;;;;;;;3.72;3.42;;;;;;;;;;5061804;28;20223;-53
2023/06/24 12:14:55;;;;;;;3.53;3.28;;;;;;;;;;5062999;28;20234;-56
2023/06/24 12:17:22;;;;;;;3.97;3.55;;;;;;;;;;5065723;28;20292;-53
2023/06/24 12:19:49;;;;;;;3.53;2.80;;;;;;;;;;5064799;28;20230;-52
2023/06/24 12:22:16;;;;;;;3.75;3.42;;;;;;;;;;5063240;28;20599;-53
2023/06/24 12:24:43;;;;;;;3.25;3.05;;;;;;;;;;5063180;28;20229;-54
2023/06/24 12:27:09;;;;;;;5.38;4.88;;;;;;;;;;5065251;28;20540;-52
2023/06/24 12:29:36;;;;;;;7.10;4.40;;;;;;;;;;5065181;28;20238;-54
2023/06/24 12:32:03;;;;;;;7.25;4.30;;;;;;;;;;5067604;28;20317;-54
2023/06/24 12:34:29;;;;;;;6.80;5.28;;;;;;;;;;5071300;28;20291;-52
2023/06/24 12:36:57;;;;;;;3.72;3.42;;;;;;;;;;5067720;28;20290;-51
2023/06/24 12:39:23;;;;;;;3.92;2.75;;;;;;;;;;5065392;28;20280;-53
2023/06/24 12:41:51;;;;;;;3.67;3.38;;;;;;;;;;5070028;28;20223;-53
2023/06/24 12:44:17;;;;;;;3.17;2.88;;;;;;;;;;5070990;28;20645;-52
2023/06/24 12:46:44;;;;;;;3.30;3.00;;;;;;;;;;5058446;28;20318;-53
2023/06/24 12:49:10;;;;;;;3.95;3.63;;;;;;;;;;5065309;28;20237;-54
2023/06/24 12:51:37;;;;;;;5.10;4.00;;;;;;;;;;5067011;28;20235;-53
2023/06/24 12:54:04;;;;;;;2.90;2.70;;;;;;;;;;5062973;28;20294;-53
2023/06/24 12:56:31;;;;;;;2.90;2.70;;;;;;;;;;5066055;28;20245;-53
2023/06/24 12:58:57;;;;;;;4.53;3.22;;;;;;;;;;5072459;28;20234;-52
2023/06/24 13:01:24;;;;;;;5.05;3.80;;;;;;;;;;5066849;28;20269;-53
2023/06/24 13:03:50;;;;;;;4.07;3.67;;;;;;;;;;5061656;28;20249;-53
2023/06/24 13:06:16;;;;;;;4.03;3.70;;;;;;;;;;5049459;28;20234;-52
2023/06/24 13:08:43;;;;;;;4.40;4.00;;;;;;;;;;5062056;28;20231;-54
2023/06/24 13:11:11;;;;;;;5.07;3.90;;;;;;;;;;5063886;28;20231;-52
2023/06/24 13:13:37;;;;;;;3.40;3.13;;;;;;;;;;5061651;28;20239;-56
2023/06/24 13:16:04;;;;;;;3.97;3.67;;;;;;;;;;5063432;28;20310;-54
2023/06/24 13:18:30;;;;;;;3.95;3.50;;;;;;;;;;5064379;28;20245;-54
2023/06/24 13:20:56;;;;;;;3.90;3.60;;;;;;;;;;5063201;28;20250;-53
2023/06/24 13:23:23;;;;;;;3.55;3.25;;;;;;;;;;5063487;28;20243;-53
2023/06/24 13:25:49;;;;;;;4.07;3.50;;;;;;;;;;5062507;28;20239;-53
2023/06/24 13:28:17;;;;;;;3.38;3.08;;;;;;;;;;5061300;28;20227;-52
2023/06/24 13:30:43;;;;;;;3.53;3.22;;;;;;;;;;5074335;28;20255;-53
2023/06/24 13:33:10;;;;;;;3.85;3.47;;;;;;;;;;5061167;28;20245;-53
2023/06/24 13:35:36;;;;;;;3.78;3.45;;;;;;;;;;5053815;28;20226;-54
2023/06/24 13:38:03;;;;;;;4.90;3.88;;;;;;;;;;5055739;28;20233;-53
2023/06/24 13:40:31;;;;;;;3.75;3.28;;;;;;;;;;5060288;28;20231;-53
2023/06/24 13:42:57;;;;;;;3.70;3.25;;;;;;;;;;5039219;28;20243;-56
2023/06/24 13:45:25;;;;;;;3.90;3.53;;;;;;;;;;5042383;28;20267;-53
2023/06/24 13:47:51;;;;;;;4.15;3.72;;;;;;;;;;5035201;28;20839;-52
2023/06/24 13:50:18;;;;;;;4.00;3.60;;;;;;;;;;5040732;28;20709;-52
2023/06/24 13:52:44;;;;;;;3.70;3.20;;;;;;;;;;5034392;28;20721;-53
2023/06/24 13:55:11;;;;;;;4.35;4.03;;;;;;;;;;5043013;28;20322;-52
2023/06/24 13:57:37;;;;;;;4.35;3.97;;;;;;;;;;5038774;28;20235;-53
2023/06/24 14:00:04;;;;;;;6.03;5.20;;;;;;;;;;5033181;28;20321;-53
2023/06/24 14:02:31;;;;;;;5.32;4.80;;;;;;;;;;5040853;28;20244;-52
2023/06/24 14:04:58;;;;;;;3.83;3.38;;;;;;;;;;5056104;28;20227;-53
2023/06/24 14:07:25;;;;;;;3.95;3.55;;;;;;;;;;5048930;28;20629;-53
2023/06/24 14:09:51;;;;;;;5.25;3.75;;;;;;;;;;5053425;28;20254;-52
2023/06/24 14:12:18;;;;;;;4.78;3.63;;;;;;;;;;5056735;28;20724;-53
2023/06/24 14:14:44;;;;;;;4.93;4.47;;;;;;;;;;5058716;28;20231;-53
2023/06/24 14:17:12;;;;;;;4.07;3.45;;;;;;;;;;5054158;28;20227;-55
2023/06/24 14:19:40;;;;;;;3.47;3.10;;;;;;;;;;5063616;28;20255;-53
2023/06/24 14:22:06;;;;;;;5.18;4.60;;;;;;;;;;5059793;28;20242;-52
2023/06/24 14:24:33;;;;;;;8.05;4.20;;;;;;;;;;5056693;28;20284;-56
2023/06/24 14:26:59;;;;;;;5.47;3.80;;;;;;;;;;5062603;28;20868;-53
2023/06/24 14:29:26;;;;;;;5.38;4.03;;;;;;;;;;5064430;28;20709;-53
2023/06/24 14:31:52;;;;;;;4.45;4.03;;;;;;;;;;5064987;28;20303;-54
2023/06/24 14:34:19;;;;;;;5.05;3.58;;;;;;;;;;5060777;28;20309;-53
2023/06/24 14:36:47;;;;;;;4.82;4.43;;;;;;;;;;5061571;28;20220;-53